Time;durP1;ratioP1;P1;durP2;ratioP2;P2;SDS_P1;SDS_P2;PMS_P1;PMS_P2;Temp;Humidity;BMP_temperature;BMP_pressure;BME280_temperature;BME280_humidity;BME280_pressure;Samples;Min_cycle;Max_cycle;Signal;HPM_P1;HPM_P2
2021/07/09 00:01:00;;;;;;;1.90;1.48;;;;;;;16.52;nan;100867.97;5052024;28;20039;-89
2021/07/09 00:03:25;;;;;;;4.00;1.80;;;;;;;16.53;nan;100872.28;5064380;28;20064;-89
2021/07/09 00:05:50;;;;;;;2.13;1.50;;;;;;;16.61;nan;100870.53;5059163;28;20029;-89
2021/07/09 00:08:16;;;;;;;2.42;1.60;;;;;;;16.56;nan;100863.09;5063314;28;20033;-89
2021/07/09 00:10:41;;;;;;;3.25;1.55;;;;;;;16.60;nan;100856.38;5062575;28;20112;-90
2021/07/09 00:13:06;;;;;;;2.00;1.38;;;;;;;16.62;nan;100867.72;5060887;28;20032;-89
2021/07/09 00:15:34;;;;;;;2.30;1.70;;;;;;;16.59;nan;100861.88;5064169;28;20140;-89
2021/07/09 00:17:59;;;;;;;2.33;1.85;;;;;;;16.61;nan;100862.53;5058926;28;20040;-89
2021/07/09 00:20:25;;;;;;;2.45;1.67;;;;;;;16.66;nan;100860.13;5062151;28;20696;-90
2021/07/09 00:22:50;;;;;;;3.55;1.77;;;;;;;16.63;nan;100858.66;5058961;28;20041;-90
2021/07/09 00:25:16;;;;;;;2.38;1.75;;;;;;;16.62;nan;100854.34;5066516;28;20027;-90
2021/07/09 00:27:41;;;;;;;2.70;1.60;;;;;;;16.59;nan;100852.06;5040543;28;20032;-90
2021/07/09 00:30:07;;;;;;;3.38;1.80;;;;;;;16.57;nan;100851.41;5054647;28;20033;-90
2021/07/09 00:32:32;;;;;;;3.08;1.90;;;;;;;16.59;nan;100854.72;5056735;28;20403;-89
2021/07/09 00:34:58;;;;;;;3.47;2.10;;;;;;;16.58;nan;100853.06;5057961;28;20032;-89
2021/07/09 00:37:23;;;;;;;3.00;1.90;;;;;;;16.60;nan;100845.69;5058169;28;20143;-89
2021/07/09 00:39:48;;;;;;;3.13;2.10;;;;;;;16.58;nan;100841.56;5057534;28;20124;-90
2021/07/09 00:42:14;;;;;;;1.90;1.63;;;;;;;16.60;nan;100845.69;5073045;28;20039;-89
2021/07/09 00:44:39;;;;;;;2.30;1.63;;;;;;;16.64;nan;100846.19;5062411;28;20452;-89
2021/07/09 00:47:04;;;;;;;2.45;1.70;;;;;;;16.65;nan;100835.28;5064828;28;20113;-89
2021/07/09 00:49:30;;;;;;;4.07;1.92;;;;;;;16.65;nan;100835.28;5061778;28;20385;-90
2021/07/09 00:51:55;;;;;;;3.13;1.70;;;;;;;16.66;nan;100836.13;5056329;28;20416;-90
2021/07/09 00:54:20;;;;;;;3.17;2.05;;;;;;;16.64;nan;100828.31;5053035;28;20033;-89
2021/07/09 00:56:46;;;;;;;2.95;2.05;;;;;;;16.63;nan;100831.97;5074356;28;20032;-90
2021/07/09 00:59:13;;;;;;;3.00;2.00;;;;;;;16.64;nan;100830.16;5081097;28;20147;-90
2021/07/09 01:01:39;;;;;;;2.88;2.10;;;;;;;16.61;nan;100834.00;5057317;28;20040;-90
2021/07/09 01:04:05;;;;;;;3.20;2.20;;;;;;;16.59;nan;100829.84;5054497;28;20033;-89
2021/07/09 01:06:30;;;;;;;3.20;2.53;;;;;;;16.57;nan;100832.72;5070489;28;20052;-89
2021/07/09 01:08:58;;;;;;;3.03;2.10;;;;;;;16.57;nan;100835.41;5072205;28;20511;-89
2021/07/09 01:11:27;;;;;;;2.60;1.90;;;;;;;16.51;nan;100836.94;5055599;28;20033;-90
2021/07/09 01:13:52;;;;;;;3.90;2.55;;;;;;;16.46;nan;100838.50;5069726;28;20029;-89
2021/07/09 01:16:18;;;;;;;4.10;2.50;;;;;;;16.45;nan;100837.69;5061713;28;20028;-89
2021/07/09 01:18:43;;;;;;;3.42;2.25;;;;;;;16.45;nan;100836.88;5070861;28;20033;-90
2021/07/09 01:21:09;;;;;;;3.13;2.25;;;;;;;16.43;nan;100838.88;5053409;28;20029;-89
2021/07/09 01:23:36;;;;;;;3.65;2.40;;;;;;;16.45;nan;100837.69;5057517;28;20037;-89
2021/07/09 01:26:03;;;;;;;2.88;2.20;;;;;;;16.45;nan;100828.84;5058539;28;20060;-89
2021/07/09 01:28:28;;;;;;;3.72;2.72;;;;;;;16.41;nan;100833.72;5070295;28;20438;-89
2021/07/09 01:30:54;;;;;;;4.00;2.83;;;;;;;16.38;nan;100838.59;5076903;28;20037;-89
2021/07/09 01:33:19;;;;;;;4.10;2.40;;;;;;;16.38;nan;100839.44;5061077;28;20057;-90
2021/07/09 01:35:45;;;;;;;2.88;2.50;;;;;;;16.42;nan;100834.53;5062062;28;20035;-89
2021/07/09 01:38:11;;;;;;;4.07;2.65;;;;;;;16.42;nan;100829.19;5081294;28;20029;-89
2021/07/09 01:40:38;;;;;;;4.35;2.65;;;;;;;16.40;nan;100834.75;5061156;28;20087;-90
2021/07/09 01:43:04;;;;;;;5.18;2.72;;;;;;;16.33;nan;100834.63;5055447;28;20106;-90
2021/07/09 01:45:31;;;;;;;6.20;2.90;;;;;;;16.29;nan;100838.66;5077432;28;20032;-90
2021/07/09 01:47:57;;;;;;;5.65;2.55;;;;;;;16.32;nan;100834.81;5063147;28;20040;-89
2021/07/09 01:50:25;;;;;;;4.20;2.58;;;;;;;16.33;nan;100841.81;5061483;28;20041;-90
2021/07/09 01:52:51;;;;;;;5.18;2.50;;;;;;;16.31;nan;100841.16;5061839;28;20522;-89
2021/07/09 01:55:17;;;;;;;4.03;2.70;;;;;;;16.32;nan;100837.47;5054682;28;20549;-90
2021/07/09 01:57:44;;;;;;;4.47;2.97;;;;;;;16.27;nan;100837.19;5056538;28;20138;-89
2021/07/09 02:00:12;;;;;;;4.30;2.67;;;;;;;16.26;nan;100835.53;5072860;28;20036;-89
2021/07/09 02:02:39;;;;;;;3.90;2.70;;;;;;;16.22;nan;100837.72;5057590;28;20528;-90
2021/07/09 02:05:09;;;;;;;2.97;2.08;;;;;;;16.22;nan;100834.25;5053880;28;20033;-90
2021/07/09 02:07:34;;;;;;;5.30;2.55;;;;;;;16.17;nan;100832.13;5080058;28;20044;-90
2021/07/09 02:10:00;;;;;;;3.70;2.75;;;;;;;16.18;nan;100823.09;5080930;28;20368;-89
2021/07/09 02:12:27;;;;;;;3.72;2.67;;;;;;;16.22;nan;100823.56;5071995;28;20037;-89
2021/07/09 02:14:54;;;;;;;4.10;2.75;;;;;;;16.15;nan;100820.78;5070769;28;20040;-89
2021/07/09 02:17:21;;;;;;;4.57;2.83;;;;;;;16.17;nan;100829.44;5052637;28;20037;-89
2021/07/09 02:19:50;;;;;;;6.97;3.03;;;;;;;16.18;nan;100827.59;5064309;28;20563;-89
2021/07/09 02:22:17;;;;;;;4.10;2.70;;;;;;;16.12;nan;100819.31;5052225;28;20029;-89
2021/07/09 02:24:45;;;;;;;3.33;2.55;;;;;;;16.08;nan;100820.69;5055610;28;20032;-89
2021/07/09 02:27:11;;;;;;;3.15;2.30;;;;;;;16.10;nan;100825.84;5074834;28;20033;-89
2021/07/09 02:29:36;;;;;;;3.72;2.40;;;;;;;16.10;nan;100825.84;5068561;28;20025;-89
2021/07/09 02:32:05;;;;;;;3.72;2.45;;;;;;;16.07;nan;100823.53;5062967;28;20492;-89
2021/07/09 02:34:32;;;;;;;3.47;2.30;;;;;;;16.09;nan;100821.53;5055003;28;20397;-88
2021/07/09 02:36:58;;;;;;;2.72;2.40;;;;;;;16.09;nan;100826.88;5059895;28;20488;-89
2021/07/09 02:39:27;;;;;;;4.25;2.38;;;;;;;16.08;nan;100817.19;5057370;28;20082;-88
2021/07/09 02:41:57;;;;;;;2.58;2.22;;;;;;;16.14;nan;100827.16;5058310;28;20033;-88
2021/07/09 02:44:23;;;;;;;2.47;2.20;;;;;;;16.19;nan;100824.75;5073703;28;20045;-89
2021/07/09 02:46:49;;;;;;;3.40;2.50;;;;;;;16.17;nan;100820.63;5050729;28;20116;-89
2021/07/09 02:49:15;;;;;;;3.17;2.63;;;;;;;16.11;nan;100824.81;5063671;28;20086;-89
2021/07/09 02:51:41;;;;;;;2.90;2.13;;;;;;;16.11;nan;100831.00;5062782;28;20107;-89
2021/07/09 02:54:06;;;;;;;3.60;2.55;;;;;;;16.12;nan;100829.16;5073123;28;20029;-88
2021/07/09 02:56:32;;;;;;;2.90;2.42;;;;;;;16.16;nan;100822.47;5052858;28;20153;-88
2021/07/09 02:58:58;;;;;;;2.88;2.30;;;;;;;16.19;nan;100826.59;5055707;28;20496;-88
2021/07/09 03:01:24;;;;;;;3.17;2.30;;;;;;;16.22;nan;100834.25;5053800;28;20377;-88
2021/07/09 03:03:49;;;;;;;2.45;1.90;;;;;;;16.20;nan;100815.72;5078067;28;20075;-88
2021/07/09 03:06:14;;;;;;;2.53;2.03;;;;;;;16.23;nan;100825.22;5060200;28;20039;-88
2021/07/09 03:08:40;;;;;;;3.00;2.30;;;;;;;16.25;nan;100826.69;5084676;28;20025;-89
2021/07/09 03:11:05;;;;;;;2.85;2.33;;;;;;;16.23;nan;100825.22;5060366;28;20150;-89
2021/07/09 03:13:30;;;;;;;3.70;2.30;;;;;;;16.23;nan;100819.88;5052772;28;20075;-88
2021/07/09 03:15:56;;;;;;;3.25;2.40;;;;;;;16.21;nan;100832.56;5059592;28;20025;-88
2021/07/09 03:18:21;;;;;;;3.35;2.80;;;;;;;16.20;nan;100821.06;5055448;28;20053;-89
2021/07/09 03:20:46;;;;;;;3.83;2.80;;;;;;;16.20;nan;100823.75;5080498;28;20031;-88
2021/07/09 03:23:12;;;;;;;3.40;2.20;;;;;;;16.23;nan;100826.06;5057602;28;20045;-88
2021/07/09 03:25:37;;;;;;;4.97;2.75;;;;;;;16.24;nan;100833.03;5068622;28;20055;-89
2021/07/09 03:28:03;;;;;;;3.85;2.97;;;;;;;16.21;nan;100821.91;5051951;28;20033;-88
2021/07/09 03:30:28;;;;;;;2.90;2.60;;;;;;;16.19;nan;100824.75;5063115;28;20033;-89
2021/07/09 03:33:06;;;;;;;3.45;2.60;;;;;;;16.17;nan;100823.28;5068083;28;20124;-88
2021/07/09 03:35:31;;;;;;;2.45;2.10;;;;;;;16.18;nan;100819.59;5051652;28;20055;-88
2021/07/09 03:37:57;;;;;;;3.83;2.55;;;;;;;16.21;nan;100822.75;5050891;28;20072;-89
2021/07/09 03:40:22;;;;;;;4.22;2.40;;;;;;;16.20;nan;100826.41;5051745;28;20029;-88
2021/07/09 03:42:47;;;;;;;2.90;2.55;;;;;;;16.19;nan;100835.44;5051436;28;20031;-89
2021/07/09 03:45:13;;;;;;;2.58;2.25;;;;;;;16.20;nan;100837.09;5058626;28;20044;-89
2021/07/09 03:47:39;;;;;;;2.88;2.45;;;;;;;16.20;nan;100834.41;5052959;28;20365;-89
2021/07/09 03:50:06;;;;;;;4.78;2.63;;;;;;;16.14;nan;100837.81;5056103;28;20041;-89
2021/07/09 03:52:32;;;;;;;2.55;2.20;;;;;;;16.14;nan;100830.63;5050417;28;20036;-89
2021/07/09 03:54:57;;;;;;;3.10;2.30;;;;;;;16.20;nan;100845.09;5065652;28;20041;-89
2021/07/09 03:57:22;;;;;;;3.72;2.55;;;;;;;16.21;nan;100836.09;5053746;28;20445;-89
2021/07/09 03:59:48;;;;;;;2.40;2.15;;;;;;;16.23;nan;100849.22;5060581;28;20119;-89
2021/07/09 04:02:13;;;;;;;3.30;2.40;;;;;;;16.28;nan;100844.16;5057568;28;20067;-89
2021/07/09 04:04:40;;;;;;;3.13;1.83;;;;;;;16.29;nan;100848.50;5057068;28;20112;-89
2021/07/09 04:07:06;;;;;;;3.13;2.40;;;;;;;16.29;nan;100852.00;5053244;28;20071;-89
2021/07/09 04:09:31;;;;;;;3.38;2.60;;;;;;;16.29;nan;100849.34;5058710;28;20549;-89
2021/07/09 04:11:56;;;;;;;3.03;2.35;;;;;;;16.28;nan;100853.03;5051912;28;20041;-89
2021/07/09 04:14:22;;;;;;;3.10;2.30;;;;;;;16.30;nan;100850.16;5052615;28;20026;-89
2021/07/09 04:16:47;;;;;;;2.38;2.10;;;;;;;16.30;nan;100859.03;5072294;28;20036;-89
2021/07/09 04:19:13;;;;;;;3.60;2.70;;;;;;;16.29;nan;100862.69;5058703;28;20423;-89
2021/07/09 04:21:39;;;;;;;3.05;2.75;;;;;;;16.23;nan;100858.09;5056638;28;20033;-89
2021/07/09 04:24:04;;;;;;;2.88;2.58;;;;;;;16.21;nan;100860.09;5060530;28;20085;-89
2021/07/09 04:26:30;;;;;;;2.97;2.35;;;;;;;16.23;nan;100862.56;5058707;28;20104;-89
2021/07/09 04:28:55;;;;;;;3.33;2.53;;;;;;;16.22;nan;100859.06;5060826;28;20037;-90
2021/07/09 04:31:20;;;;;;;2.30;1.98;;;;;;;16.22;nan;100864.41;5051762;28;20029;-90
2021/07/09 04:33:47;;;;;;;2.50;1.98;;;;;;;16.24;nan;100870.41;5082487;28;20033;-90
2021/07/09 04:36:12;;;;;;;3.58;2.63;;;;;;;16.23;nan;100873.25;5058728;28;20118;-89
2021/07/09 04:38:38;;;;;;;2.90;2.28;;;;;;;16.24;nan;100874.91;5063641;28;20088;-90
2021/07/09 04:41:03;;;;;;;2.67;2.30;;;;;;;16.24;nan;100881.06;5062163;28;20041;-89
2021/07/09 04:43:28;;;;;;;2.78;2.20;;;;;;;16.26;nan;100872.91;5063485;28;20112;-89
2021/07/09 04:45:54;;;;;;;3.17;2.53;;;;;;;16.24;nan;100881.06;5072896;28;20034;-90
2021/07/09 04:48:19;;;;;;;4.00;3.10;;;;;;;16.20;nan;100878.94;5050339;28;20033;-90
2021/07/09 04:50:44;;;;;;;3.40;3.05;;;;;;;16.18;nan;100881.78;5086920;28;20569;-90
2021/07/09 04:53:10;;;;;;;3.90;2.85;;;;;;;16.19;nan;100879.97;5058061;28;20507;-89
2021/07/09 04:55:35;;;;;;;3.60;2.50;;;;;;;16.23;nan;100874.09;5058678;28;20511;-90
2021/07/09 04:58:07;;;;;;;4.20;3.30;;;;;;;16.21;nan;100884.13;5077968;28;20029;-89
2021/07/09 05:00:32;;;;;;;4.13;3.22;;;;;;;16.22;nan;100892.94;5061286;28;20060;-89
2021/07/09 05:03:01;;;;;;;5.18;3.50;;;;;;;16.20;nan;100885.09;5067220;28;20573;-89
2021/07/09 05:05:26;;;;;;;4.05;3.05;;;;;;;16.20;nan;100894.97;5069871;28;20488;-89
2021/07/09 05:07:52;;;;;;;3.40;2.58;;;;;;;16.21;nan;100891.25;5051353;28;20090;-89
2021/07/09 05:10:18;;;;;;;4.45;3.60;;;;;;;16.18;nan;100889.78;5061219;28;20033;-89
2021/07/09 05:12:43;;;;;;;3.30;2.83;;;;;;;16.22;nan;100895.59;5057037;28;20041;-89
2021/07/09 05:15:09;;;;;;;3.45;2.50;;;;;;;16.25;nan;100901.41;5056484;28;20102;-89
2021/07/09 05:17:35;;;;;;;3.45;3.13;;;;;;;16.24;nan;100897.09;5053090;28;20037;-89
2021/07/09 05:20:01;;;;;;;2.92;2.58;;;;;;;16.27;nan;100896.72;5058659;28;20064;-90
2021/07/09 05:22:26;;;;;;;3.28;2.97;;;;;;;16.27;nan;100898.56;5062638;28;20037;-90
2021/07/09 05:24:54;;;;;;;3.30;2.40;;;;;;;16.31;nan;100897.19;5073350;28;20512;-90
2021/07/09 05:27:20;;;;;;;3.58;2.40;;;;;;;16.31;nan;100903.38;5068612;28;20560;-90
2021/07/09 05:29:46;;;;;;;3.38;2.50;;;;;;;16.32;nan;100904.19;5071083;28;20024;-90
2021/07/09 05:32:11;;;;;;;2.75;1.85;;;;;;;16.33;nan;100901.34;5060107;28;20051;-90
2021/07/09 05:34:37;;;;;;;2.20;2.00;;;;;;;16.35;nan;100898.47;5055675;28;20444;-91
2021/07/09 05:37:10;;;;;;;2.22;1.92;;;;;;;16.34;nan;100902.16;5071359;28;20040;-92
2021/07/09 05:39:35;;;;;;;2.83;2.30;;;;;;;16.34;nan;100905.66;5062827;28;20033;-92
2021/07/09 05:42:02;;;;;;;3.53;3.22;;;;;;;16.31;nan;100906.03;5067223;28;20037;-91
2021/07/09 05:44:27;;;;;;;3.10;2.70;;;;;;;16.33;nan;100916.53;5051955;28;20659;-91
2021/07/09 05:46:53;;;;;;;3.83;2.97;;;;;;;16.31;nan;100914.03;5052296;28;20036;-91
2021/07/09 05:49:18;;;;;;;3.63;3.15;;;;;;;16.31;nan;100914.03;5056760;28;20033;-91
2021/07/09 05:51:43;;;;;;;3.45;3.05;;;;;;;16.30;nan;100917.72;5067501;28;20518;-91
2021/07/09 05:54:09;;;;;;;4.82;4.00;;;;;;;16.26;nan;100916.41;5057690;28;20029;-91
2021/07/09 05:56:34;;;;;;;4.35;3.88;;;;;;;16.23;nan;100922.13;5082173;28;20108;-91
2021/07/09 05:58:59;;;;;;;3.95;3.10;;;;;;;16.26;nan;100921.75;5059662;28;20029;-91
2021/07/09 06:01:25;;;;;;;5.10;3.60;;;;;;;16.27;nan;100926.06;5054989;28;20044;-91
2021/07/09 06:03:50;;;;;;;4.10;3.55;;;;;;;16.27;nan;100930.59;5085261;28;20025;-91
2021/07/09 06:06:15;;;;;;;3.55;3.00;;;;;;;16.29;nan;100921.38;5051865;28;20041;-91
2021/07/09 06:08:41;;;;;;;4.82;4.10;;;;;;;16.24;nan;100937.13;5065461;28;20025;-91
2021/07/09 06:11:08;;;;;;;6.60;4.28;;;;;;;16.24;nan;100939.78;5067612;28;20029;-91
2021/07/09 06:13:33;;;;;;;4.15;3.33;;;;;;;16.28;nan;100938.44;5069877;28;20021;-90
2021/07/09 06:16:01;;;;;;;4.50;3.58;;;;;;;16.32;nan;100937.03;5057421;28;20048;-91
2021/07/09 06:18:26;;;;;;;4.45;3.22;;;;;;;16.34;nan;100939.53;5056846;28;20037;-90
2021/07/09 06:20:51;;;;;;;4.93;3.60;;;;;;;16.35;nan;100944.72;5065469;28;20392;-90
2021/07/09 06:23:18;;;;;;;4.38;3.33;;;;;;;16.38;nan;100950.69;5064160;28;20392;-90
2021/07/09 06:25:43;;;;;;;4.57;4.00;;;;;;;16.38;nan;100956.84;5055941;28;20029;-90
2021/07/09 06:28:08;;;;;;;4.65;3.50;;;;;;;16.40;nan;100964.66;5053037;28;20030;-91
2021/07/09 06:30:35;;;;;;;6.32;4.82;;;;;;;16.45;nan;100956.97;5051175;28;20090;-91
2021/07/09 06:33:00;;;;;;;5.47;4.72;;;;;;;16.42;nan;100963.50;5054063;28;20542;-91
2021/07/09 06:35:29;;;;;;;6.38;4.60;;;;;;;16.45;nan;100957.81;5051759;28;20086;-90
2021/07/09 06:37:56;;;;;;;6.57;5.55;;;;;;;16.40;nan;100959.31;5063894;28;20033;-92
2021/07/09 06:40:32;;;;;;;5.35;4.85;;;;;;;16.41;nan;100959.16;5051756;28;21058;-92
2021/07/09 06:42:57;;;;;;;5.25;3.85;;;;;;;16.50;nan;100962.59;5053248;28;20033;-91
2021/07/09 06:45:23;;;;;;;6.93;5.45;;;;;;;16.47;nan;100954.94;5035245;28;20532;-91
2021/07/09 06:47:49;;;;;;;5.63;4.70;;;;;;;16.49;nan;100960.94;5055375;28;20037;-91
2021/07/09 06:50:15;;;;;;;5.15;4.10;;;;;;;16.50;nan;100965.28;5047678;28;20069;-91
2021/07/09 06:52:42;;;;;;;3.90;3.50;;;;;;;16.54;nan;100961.22;5059854;28;20041;-90
2021/07/09 06:55:09;;;;;;;6.97;5.32;;;;;;;16.52;nan;100965.94;5063561;28;20029;-90
2021/07/09 06:57:34;;;;;;;6.72;4.85;;;;;;;16.56;nan;100965.38;5070756;28;20044;-90
2021/07/09 07:00:00;;;;;;;6.40;4.78;;;;;;;16.56;nan;100965.38;5041730;28;20044;-90
2021/07/09 07:02:25;;;;;;;5.65;4.65;;;;;;;16.52;nan;100956.06;5061317;28;20037;-90
2021/07/09 07:04:50;;;;;;;4.28;3.80;;;;;;;16.62;nan;100957.66;5060456;28;20490;-90
2021/07/09 07:07:17;;;;;;;7.63;6.28;;;;;;;16.60;nan;100960.50;5057037;28;20555;-90
2021/07/09 07:09:42;;;;;;;5.32;4.53;;;;;;;16.71;nan;100968.09;5068392;28;20086;-90
2021/07/09 07:12:08;;;;;;;4.30;3.55;;;;;;;16.89;nan;100959.75;5068475;28;20033;-90
2021/07/09 07:14:34;;;;;;;5.35;4.55;;;;;;;16.94;nan;100960.03;5055440;28;20388;-90
2021/07/09 07:17:00;;;;;;;6.85;4.15;;;;;;;16.95;nan;100966.22;5057949;28;20273;-90
2021/07/09 07:19:25;;;;;;;5.50;4.00;;;;;;;17.02;nan;100961.81;5054535;28;20048;-90
2021/07/09 07:21:52;;;;;;;5.10;3.05;;;;;;;17.10;nan;100969.72;5072111;28;20069;-90
2021/07/09 07:24:17;;;;;;;4.47;3.33;;;;;;;17.23;nan;100965.56;5039497;28;20029;-90
2021/07/09 07:26:44;;;;;;;5.45;3.78;;;;;;;17.29;nan;100962.16;5060676;28;20032;-90
2021/07/09 07:29:09;;;;;;;4.75;4.10;;;;;;;17.32;nan;100959.13;5063700;28;20105;-90
2021/07/09 07:31:35;;;;;;;5.70;4.50;;;;;;;17.32;nan;100969.81;5058882;28;20025;-90
2021/07/09 07:34:00;;;;;;;5.57;4.32;;;;;;;17.34;nan;100967.78;5066639;28;20029;-90
2021/07/09 07:36:25;;;;;;;5.25;3.90;;;;;;;17.39;nan;100962.72;5059121;28;20037;-90
2021/07/09 07:38:51;;;;;;;6.43;4.80;;;;;;;17.46;nan;100968.97;5031653;28;20362;-90
2021/07/09 07:41:17;;;;;;;4.82;4.32;;;;;;;17.45;nan;100978.03;5049499;28;20032;-90
2021/07/09 07:43:43;;;;;;;5.88;4.97;;;;;;;17.45;nan;100978.03;5041156;28;20520;-90
2021/07/09 07:46:09;;;;;;;8.07;6.07;;;;;;;17.40;nan;100969.72;5059634;28;20033;-90
2021/07/09 07:48:35;;;;;;;6.75;4.78;;;;;;;17.47;nan;100981.34;5053189;28;20037;-90
2021/07/09 07:51:10;;;;;;;4.60;4.00;;;;;;;17.52;nan;100980.75;5062257;28;20028;-90
2021/07/09 07:53:36;;;;;;;3.90;3.13;;;;;;;17.63;nan;100980.28;5057445;28;20522;-90
2021/07/09 07:56:03;;;;;;;4.03;3.30;;;;;;;17.78;nan;100974.91;5064615;28;20108;-89
2021/07/09 07:58:28;;;;;;;5.25;3.50;;;;;;;17.82;nan;100971.69;5066914;28;20033;-90
2021/07/09 08:00:54;;;;;;;4.40;3.42;;;;;;;17.85;nan;100983.03;5086191;28;20047;-89
2021/07/09 08:03:19;;;;;;;5.22;4.13;;;;;;;17.90;nan;100976.13;5074991;28;20036;-90
2021/07/09 08:05:44;;;;;;;6.07;4.28;;;;;;;17.90;nan;100973.44;5068391;28;20025;-88
2021/07/09 08:08:10;;;;;;;5.63;4.07;;;;;;;17.89;nan;100977.13;5061087;28;20057;-89
2021/07/09 08:10:35;;;;;;;6.53;4.65;;;;;;;17.93;nan;100982.94;5083848;28;20136;-89
2021/07/09 08:13:01;;;;;;;4.43;3.65;;;;;;;17.89;nan;100987.81;5078080;28;20032;-89
2021/07/09 08:15:26;;;;;;;4.75;3.60;;;;;;;17.99;nan;100982.16;5057892;28;20025;-89
2021/07/09 08:17:51;;;;;;;4.13;3.45;;;;;;;17.99;nan;100990.19;5063956;28;20040;-89
2021/07/09 08:20:24;;;;;;;5.90;4.45;;;;;;;17.84;nan;100987.56;5062076;28;20128;-89
2021/07/09 08:22:49;;;;;;;5.00;4.00;;;;;;;17.81;nan;100988.78;5072666;28;20036;-89
2021/07/09 08:25:16;;;;;;;5.88;5.05;;;;;;;17.73;nan;100990.69;5057567;28;20496;-89
2021/07/09 08:27:42;;;;;;;5.70;4.75;;;;;;;17.71;nan;100979.34;5066721;28;20376;-89
2021/07/09 08:30:09;;;;;;;6.40;5.28;;;;;;;17.79;nan;100981.94;5077458;28;20085;-88
2021/07/09 08:32:35;;;;;;;6.80;5.38;;;;;;;17.78;nan;100985.59;5062188;28;20029;-89
2021/07/09 08:35:01;;;;;;;6.72;4.30;;;;;;;17.89;nan;100993.19;5061343;28;20561;-89
2021/07/09 08:37:26;;;;;;;5.18;4.25;;;;;;;17.93;nan;100986.44;5073999;28;20029;-89
2021/07/09 08:39:52;;;;;;;6.32;5.38;;;;;;;17.97;nan;100985.06;5055070;28;20472;-89
2021/07/09 08:42:18;;;;;;;7.00;6.30;;;;;;;17.98;nan;100986.69;5062649;28;20029;-88
2021/07/09 08:44:44;;;;;;;6.50;5.45;;;;;;;18.19;nan;100979.72;5063650;28;20037;-88
2021/07/09 08:47:09;;;;;;;6.47;5.43;;;;;;;18.44;nan;100977.47;5079037;28;20407;-88
2021/07/09 08:49:35;;;;;;;7.03;5.53;;;;;;;18.71;nan;100985.72;5079115;28;20487;-89
2021/07/09 08:52:02;;;;;;;6.15;5.32;;;;;;;18.89;nan;100981.56;5062039;28;20052;-87
2021/07/09 08:54:27;;;;;;;7.50;5.60;;;;;;;19.14;nan;100981.13;5053618;28;20484;-88
2021/07/09 08:56:53;;;;;;;8.55;6.75;;;;;;;19.20;nan;100979.50;5062252;28;20120;-88
2021/07/09 08:59:20;;;;;;;10.30;6.45;;;;;;;19.28;nan;100980.19;5071716;28;20726;-88
2021/07/09 09:01:48;;;;;;;7.20;6.35;;;;;;;19.28;nan;100979.31;5071457;28;20029;-88
2021/07/09 09:04:14;;;;;;;6.70;6.00;;;;;;;19.33;nan;100987.63;5076378;28;20555;-88
2021/07/09 09:06:39;;;;;;;8.35;6.60;;;;;;;19.45;nan;100987.88;5048504;28;20120;-88
2021/07/09 09:09:15;;;;;;;9.20;7.70;;;;;;;19.45;nan;100990.53;5058201;28;20129;-88
2021/07/09 09:11:58;;;;;;;9.70;7.40;;;;;;;19.48;nan;100993.69;5078763;28;20436;-88
2021/07/09 09:14:23;;;;;;;7.18;6.47;;;;;;;19.52;nan;100994.09;5078586;28;20029;-88
2021/07/09 09:16:49;;;;;;;8.15;7.35;;;;;;;19.49;nan;100995.31;5053819;28;20531;-88
2021/07/09 09:19:20;;;;;;;9.85;7.80;;;;;;;19.56;nan;100998.03;5063227;28;20036;-88
2021/07/09 09:21:45;;;;;;;10.88;8.95;;;;;;;19.55;nan;101003.63;5063057;28;20528;-89
2021/07/09 09:24:10;;;;;;;8.88;7.80;;;;;;;19.44;nan;101005.00;5061120;28;20120;-88
2021/07/09 09:26:50;;;;;;;9.93;8.02;;;;;;;19.49;nan;101010.59;5078982;28;20116;-88
2021/07/09 09:29:37;;;;;;;8.90;8.00;;;;;;;19.62;nan;101010.66;5061579;28;20029;-88
2021/07/09 09:32:06;;;;;;;9.35;8.18;;;;;;;19.67;nan;101004.72;5046928;28;20048;-88
2021/07/09 09:34:44;;;;;;;8.27;6.97;;;;;;;19.75;nan;101003.72;5055748;28;20029;-89
2021/07/09 09:37:13;;;;;;;12.48;10.43;;;;;;;19.73;nan;101007.44;5053535;28;20037;-90
2021/07/09 09:39:41;;;;;;;13.48;11.25;;;;;;;19.75;nan;101009.09;5057167;28;20113;-89
2021/07/09 09:42:17;;;;;;;12.00;10.15;;;;;;;19.73;nan;101012.81;5057769;28;20033;-89
2021/07/09 09:44:43;;;;;;;11.57;9.00;;;;;;;19.87;nan;101015.53;5056244;28;20036;-90
2021/07/09 09:47:18;;;;;;;13.38;11.20;;;;;;;19.73;nan;101012.81;5084937;28;20029;-89
2021/07/09 09:49:56;;;;;;;13.43;11.10;;;;;;;19.93;nan;101007.50;5069433;28;20040;-89
2021/07/09 09:52:42;;;;;;;14.23;11.68;;;;;;;20.01;nan;101003.81;5077226;28;20047;-89
2021/07/09 09:55:09;;;;;;;13.32;11.52;;;;;;;20.12;nan;101011.28;5055116;28;20029;-89
2021/07/09 09:57:36;;;;;;;19.52;14.23;;;;;;;20.12;nan;100997.84;5068084;28;20532;-89
2021/07/09 10:00:16;;;;;;;16.27;13.02;;;;;;;20.09;nan;101002.78;5049090;28;20374;-89
2021/07/09 10:02:44;;;;;;;16.38;13.40;;;;;;;20.07;nan;101007.53;5067762;28;20029;-89
2021/07/09 10:05:10;;;;;;;15.93;12.80;;;;;;;20.09;nan;100995.59;5050849;28;20044;-90
2021/07/09 10:07:36;;;;;;;15.23;13.38;;;;;;;20.27;nan;100996.84;5061296;28;20502;-89
2021/07/09 10:10:03;;;;;;;16.17;12.45;;;;;;;20.32;nan;100991.69;5050707;28;20493;-89
2021/07/09 10:12:30;;;;;;;16.33;13.85;;;;;;;20.34;nan;100998.50;5049269;28;20449;-89
2021/07/09 10:14:56;;;;;;;15.88;14.05;;;;;;;20.13;nan;100993.31;5049868;28;20050;-90
2021/07/09 10:17:24;;;;;;;16.08;13.00;;;;;;;20.08;nan;100999.28;5049562;28;20451;-90
2021/07/09 10:19:51;;;;;;;16.42;13.48;;;;;;;20.03;nan;100991.03;5052248;28;20045;-90
2021/07/09 10:22:16;;;;;;;12.98;11.57;;;;;;;20.15;nan;100993.94;5059432;28;20033;-89
2021/07/09 10:24:48;;;;;;;15.27;12.23;;;;;;;20.33;nan;100993.34;5050365;28;20044;-90
2021/07/09 10:27:17;;;;;;;14.60;12.25;;;;;;;20.37;nan;101002.66;5050988;28;20037;-89
2021/07/09 10:29:45;;;;;;;16.50;13.75;;;;;;;20.14;nan;100998.50;5056381;28;20032;-89
2021/07/09 10:32:12;;;;;;;14.80;12.93;;;;;;;20.14;nan;100998.50;5062987;28;20025;-89
2021/07/09 10:34:48;;;;;;;15.60;13.25;;;;;;;20.02;nan;100994.75;5052280;28;20041;-89
2021/07/09 10:37:22;;;;;;;16.67;13.50;;;;;;;20.22;nan;100992.09;5049993;28;20052;-89
2021/07/09 10:39:50;;;;;;;15.32;12.88;;;;;;;20.44;nan;100997.28;5050571;28;20404;-90
2021/07/09 10:42:19;;;;;;;15.90;12.75;;;;;;;20.67;nan;100989.69;5050616;28;20475;-89
2021/07/09 10:45:14;;;;;;;16.63;13.80;;;;;;;20.71;nan;100988.25;5042116;28;20152;-90
2021/07/09 10:47:47;;;;;;;17.25;12.85;;;;;;;21.00;nan;100989.66;5051978;28;20033;-90
2021/07/09 10:50:31;;;;;;;14.35;11.98;;;;;;;21.11;nan;100979.28;5051042;28;20521;-90
2021/07/09 10:52:58;;;;;;;14.15;12.25;;;;;;;21.33;nan;100979.84;5057145;28;20034;-89
2021/07/09 10:55:28;;;;;;;12.98;10.73;;;;;;;21.48;nan;100985.03;5072873;28;20547;-88
2021/07/09 10:58:07;;;;;;;13.05;11.57;;;;;;;21.63;nan;100980.19;5076276;28;20064;-89
2021/07/09 11:00:57;;;;;;;13.73;11.50;;;;;;;21.71;nan;100979.09;5053916;28;20047;-87
2021/07/09 11:03:43;;;;;;;14.53;10.70;;;;;;;21.93;nan;100985.84;5064501;28;20036;-87
2021/07/09 11:06:13;;;;;;;10.85;9.75;;;;;;;22.11;nan;100986.97;5046929;28;20044;-89
2021/07/09 11:09:02;;;;;;;13.70;11.32;;;;;;;22.37;nan;100981.44;5052479;28;20383;-88
2021/07/09 11:11:35;;;;;;;14.48;11.15;;;;;;;22.46;nan;100979.31;5052238;28;20033;-89
2021/07/09 11:14:09;;;;;;;11.80;10.40;;;;;;;22.22;nan;100970.97;5043797;28;20120;-88
2021/07/09 11:16:39;;;;;;;12.57;10.75;;;;;;;22.17;nan;100975.34;5053867;28;20029;-88
2021/07/09 11:19:14;;;;;;;12.13;10.82;;;;;;;22.40;nan;100969.38;5076363;28;20048;-89
2021/07/09 11:21:46;;;;;;;11.98;10.00;;;;;;;22.74;nan;100962.69;5076874;28;20454;-89
2021/07/09 11:24:20;;;;;;;11.95;9.38;;;;;;;23.06;nan;100957.22;5071735;28;20119;-89
2021/07/09 11:26:46;;;;;;;13.80;10.60;;;;;;;23.34;nan;100964.78;5060234;28;20040;-89
2021/07/09 11:29:27;;;;;;;10.40;9.30;;;;;;;23.16;nan;100956.69;5054850;28;20033;-89
2021/07/09 11:31:57;;;;;;;13.55;10.93;;;;;;;22.89;nan;100954.25;5050645;28;20272;-90
2021/07/09 11:34:26;;;;;;;14.75;11.55;;;;;;;22.77;nan;100954.16;5060258;28;20091;-90
2021/07/09 11:36:55;;;;;;;13.27;10.95;;;;;;;22.80;nan;100947.47;5061663;28;20037;-89
2021/07/09 11:39:28;;;;;;;12.88;11.45;;;;;;;22.67;nan;100943.06;5061337;28;20055;-89